Aviation Digital Data Service (ADDS)

Output produced by METARs form (1736 UTC 03 June 2020)
found at http://www.aviationweather.gov/metar/data/
 
Forecast for: ZYTX (SHENYANG/TAOKIAN, CN)
Text: TAF ZYTX 031504Z 0318/0418 33004MPS CAVOK TX24/0407Z TN14/0321Z
Forecast period: 1800 UTC 03 June 2020 to 1800 UTC 04 June 2020
Forecast type: FROM: standard forecast or significant change
Winds: from the NNW (330 degrees) at 9 MPH (8 knots; 4.1 m/s)
Visibility: 6 or more miles 10+ km)
Ceiling: unknown
Clouds: missing
Weather: no significant weather forecast for this period